sensor_id;sensor_type;location;lat;lon;timestamp;noise_LAeq;noise_LA_min;noise_LA_max;noise_LA01;noise_LA95
67298;Laerm;65443;51.436;5.978;2023-02-28T00:00:00;39.95;31.74;50.57;;
67298;Laerm;65443;51.436;5.978;2023-02-28T00:00:11;57.79;30.11;71.38;;
67298;Laerm;65443;51.436;5.978;2023-02-28T00:00:23;30.41;28.04;33.79;;
67298;Laerm;65443;51.436;5.978;2023-02-28T00:00:33;29.87;28.48;31.02;;
67298;Laerm;65443;51.436;5.978;2023-02-28T00:00:44;30.05;28.38;31.58;;
67298;Laerm;65443;51.436;5.978;2023-02-28T00:00:54;30.00;28.57;31.58;;
67298;Laerm;65443;51.436;5.978;2023-02-28T00:01:04;30.01;28.74;31.43;;
67298;Laerm;65443;51.436;5.978;2023-02-28T00:01:15;29.99;28.35;32.20;;
67298;Laerm;65443;51.436;5.978;2023-02-28T00:01:25;29.88;28.48;31.37;;
67298;Laerm;65443;51.436;5.978;2023-02-28T00:01:36;29.77;28.68;31.87;;
67298;Laerm;65443;51.436;5.978;2023-02-28T00:01:46;29.91;28.58;31.29;;
67298;Laerm;65443;51.436;5.978;2023-02-28T00:01:56;29.76;28.57;31.21;;
67298;Laerm;65443;51.436;5.978;2023-02-28T00:02:06;29.95;28.59;31.46;;
67298;Laerm;65443;51.436;5.978;2023-02-28T00:02:17;30.05;28.56;31.50;;
67298;Laerm;65443;51.436;5.978;2023-02-28T00:02:27;30.00;28.86;31.59;;
67298;Laerm;65443;51.436;5.978;2023-02-28T00:02:38;30.24;28.69;31.40;;
67298;Laerm;65443;51.436;5.978;2023-02-28T00:02:49;30.12;28.82;31.46;;
67298;Laerm;65443;51.436;5.978;2023-02-28T00:02:59;30.06;28.56;31.75;;
67298;Laerm;65443;51.436;5.978;2023-02-28T00:03:10;30.13;28.88;31.47;;
67298;Laerm;65443;51.436;5.978;2023-02-28T00:03:20;30.13;28.80;31.42;;
67298;Laerm;65443;51.436;5.978;2023-02-28T00:03:30;30.20;28.94;31.52;;
67298;Laerm;65443;51.436;5.978;2023-02-28T00:03:45;29.94;28.49;31.62;;
67298;Laerm;65443;51.436;5.978;2023-02-28T00:03:55;29.84;28.50;31.02;;
67298;Laerm;65443;51.436;5.978;2023-02-28T00:04:06;29.88;28.61;31.13;;
67298;Laerm;65443;51.436;5.978;2023-02-28T00:04:19;29.89;28.35;31.82;;
67298;Laerm;65443;51.436;5.978;2023-02-28T00:04:29;29.82;28.56;31.09;;
67298;Laerm;65443;51.436;5.978;2023-02-28T00:04:39;30.29;28.65;32.40;;
67298;Laerm;65443;51.436;5.978;2023-02-28T00:04:50;30.75;29.40;32.23;;
67298;Laerm;65443;51.436;5.978;2023-02-28T00:05:03;30.09;28.51;31.48;;
67298;Laerm;65443;51.436;5.978;2023-02-28T00:05:15;30.00;28.40;31.86;;
67298;Laerm;65443;51.436;5.978;2023-02-28T00:05:26;29.92;28.43;31.47;;
67298;Laerm;65443;51.436;5.978;2023-02-28T00:05:37;29.88;28.64;31.15;;
67298;Laerm;65443;51.436;5.978;2023-02-28T00:05:47;29.97;28.63;31.43;;
67298;Laerm;65443;51.436;5.978;2023-02-28T00:05:57;30.00;28.60;35.64;;
67298;Laerm;65443;51.436;5.978;2023-02-28T00:06:08;30.07;28.56;31.33;;
67298;Laerm;65443;51.436;5.978;2023-02-28T00:06:19;30.13;28.72;31.48;;
67298;Laerm;65443;51.436;5.978;2023-02-28T00:06:30;30.10;28.51;31.98;;
67298;Laerm;65443;51.436;5.978;2023-02-28T00:06:41;29.85;28.15;31.35;;
67298;Laerm;65443;51.436;5.978;2023-02-28T00:06:52;29.89;28.76;31.53;;
67298;Laerm;65443;51.436;5.978;2023-02-28T00:07:02;29.90;28.35;31.08;;
67298;Laerm;65443;51.436;5.978;2023-02-28T00:07:12;29.95;28.65;31.28;;
67298;Laerm;65443;51.436;5.978;2023-02-28T00:07:22;30.00;28.70;31.03;;
67298;Laerm;65443;51.436;5.978;2023-02-28T00:07:33;29.87;28.52;31.23;;
67298;Laerm;65443;51.436;5.978;2023-02-28T00:07:43;29.95;28.60;31.88;;
67298;Laerm;65443;51.436;5.978;2023-02-28T00:07:54;30.41;28.73;33.37;;
67298;Laerm;65443;51.436;5.978;2023-02-28T00:08:05;30.28;28.86;34.77;;
67298;Laerm;65443;51.436;5.978;2023-02-28T00:08:15;31.40;29.11;40.23;;
67298;Laerm;65443;51.436;5.978;2023-02-28T00:08:25;30.95;28.82;38.36;;
67298;Laerm;65443;51.436;5.978;2023-02-28T00:08:37;30.16;28.87;31.78;;
67298;Laerm;65443;51.436;5.978;2023-02-28T00:08:48;30.09;28.50;31.89;;
67298;Laerm;65443;51.436;5.978;2023-02-28T00:08:58;30.13;28.96;32.08;;
67298;Laerm;65443;51.436;5.978;2023-02-28T00:09:08;30.07;28.51;31.55;;
67298;Laerm;65443;51.436;5.978;2023-02-28T00:09:19;30.17;28.64;31.55;;
67298;Laerm;65443;51.436;5.978;2023-02-28T00:09:29;29.91;28.68;31.47;;
67298;Laerm;65443;51.436;5.978;2023-02-28T00:09:39;29.96;28.55;31.26;;
67298;Laerm;65443;51.436;5.978;2023-02-28T00:09:49;30.01;28.46;31.90;;
67298;Laerm;65443;51.436;5.978;2023-02-28T00:10:00;30.10;28.61;31.68;;
67298;Laerm;65443;51.436;5.978;2023-02-28T00:10:12;30.10;28.41;31.67;;
67298;Laerm;65443;51.436;5.978;2023-02-28T00:10:24;30.11;28.76;34.52;;
67298;Laerm;65443;51.436;5.978;2023-02-28T00:10:34;30.05;28.88;31.54;;
67298;Laerm;65443;51.436;5.978;2023-02-28T00:10:44;30.14;28.91;32.17;;
67298;Laerm;65443;51.436;5.978;2023-02-28T00:10:55;30.01;28.46;31.58;;
67298;Laerm;65443;51.436;5.978;2023-02-28T00:11:06;30.00;28.81;31.39;;
67298;Laerm;65443;51.436;5.978;2023-02-28T00:11:17;30.00;28.64;31.42;;
67298;Laerm;65443;51.436;5.978;2023-02-28T00:11:27;29.87;28.42;31.29;;
67298;Laerm;65443;51.436;5.978;2023-02-28T00:11:37;29.90;28.28;31.64;;
67298;Laerm;65443;51.436;5.978;2023-02-28T00:11:48;29.93;28.57;31.44;;
67298;Laerm;65443;51.436;5.978;2023-02-28T00:11:58;30.08;27.98;31.42;;
67298;Laerm;65443;51.436;5.978;2023-02-28T00:12:08;30.09;28.87;31.33;;
67298;Laerm;65443;51.436;5.978;2023-02-28T00:12:20;30.16;28.55;32.10;;
67298;Laerm;65443;51.436;5.978;2023-02-28T00:12:30;29.93;28.32;31.25;;
67298;Laerm;65443;51.436;5.978;2023-02-28T00:12:41;29.88;28.49;31.92;;
67298;Laerm;65443;51.436;5.978;2023-02-28T00:12:52;62.22;30.38;69.43;;
67298;Laerm;65443;51.436;5.978;2023-02-28T00:13:03;57.70;52.05;69.47;;
67298;Laerm;65443;51.436;5.978;2023-02-28T00:13:14;54.91;52.38;57.12;;
67298;Laerm;65443;51.436;5.978;2023-02-28T00:13:25;54.74;51.43;57.88;;
67298;Laerm;65443;51.436;5.978;2023-02-28T00:13:36;75.35;56.64;79.81;;
67298;Laerm;65443;51.436;5.978;2023-02-28T00:13:47;76.25;72.28;80.62;;
67298;Laerm;65443;51.436;5.978;2023-02-28T00:13:58;69.17;52.20;78.48;;
67298;Laerm;65443;51.436;5.978;2023-02-28T00:14:08;47.91;40.18;58.45;;
67298;Laerm;65443;51.436;5.978;2023-02-28T00:14:18;40.64;37.26;50.43;;
67298;Laerm;65443;51.436;5.978;2023-02-28T00:14:29;38.13;34.14;44.95;;
67298;Laerm;65443;51.436;5.978;2023-02-28T00:14:40;36.30;33.57;38.89;;
67298;Laerm;65443;51.436;5.978;2023-02-28T00:14:50;36.61;32.60;40.95;;
67298;Laerm;65443;51.436;5.978;2023-02-28T00:15:01;35.31;32.19;37.78;;
67298;Laerm;65443;51.436;5.978;2023-02-28T00:15:11;32.11;29.72;34.49;;
67298;Laerm;65443;51.436;5.978;2023-02-28T00:15:22;31.06;29.14;33.77;;
67298;Laerm;65443;51.436;5.978;2023-02-28T00:15:33;31.04;29.44;32.86;;
67298;Laerm;65443;51.436;5.978;2023-02-28T00:15:43;30.82;29.34;32.36;;
67298;Laerm;65443;51.436;5.978;2023-02-28T00:15:59;30.48;29.03;31.63;;
67298;Laerm;65443;51.436;5.978;2023-02-28T00:16:11;30.60;29.13;32.25;;
67298;Laerm;65443;51.436;5.978;2023-02-28T00:16:23;30.46;29.01;31.96;;
67298;Laerm;65443;51.436;5.978;2023-02-28T00:16:33;30.37;28.42;31.66;;
67298;Laerm;65443;51.436;5.978;2023-02-28T00:16:43;30.21;28.79;31.53;;
67298;Laerm;65443;51.436;5.978;2023-02-28T00:16:54;30.32;28.99;31.78;;
67298;Laerm;65443;51.436;5.978;2023-02-28T00:17:04;31.33;29.31;33.50;;
67298;Laerm;65443;51.436;5.978;2023-02-28T00:17:14;31.49;29.53;33.43;;
67298;Laerm;65443;51.436;5.978;2023-02-28T00:17:24;30.31;28.76;34.56;;
67298;Laerm;65443;51.436;5.978;2023-02-28T00:17:35;29.81;28.61;31.00;;
67298;Laerm;65443;51.436;5.978;2023-02-28T00:17:45;30.09;28.59;32.30;;
67298;Laerm;65443;51.436;5.978;2023-02-28T00:17:56;30.57;28.63;33.26;;
67298;Laerm;65443;51.436;5.978;2023-02-28T00:18:06;30.82;28.66;34.08;;
67298;Laerm;65443;51.436;5.978;2023-02-28T00:18:17;30.05;28.91;31.41;;
67298;Laerm;65443;51.436;5.978;2023-02-28T00:18:27;29.99;28.33;31.54;;
67298;Laerm;65443;51.436;5.978;2023-02-28T00:18:37;30.05;28.71;31.19;;
67298;Laerm;65443;51.436;5.978;2023-02-28T00:18:48;30.42;28.79;32.51;;
67298;Laerm;65443;51.436;5.978;2023-02-28T00:18:58;30.27;28.71;32.70;;
67298;Laerm;65443;51.436;5.978;2023-02-28T00:19:09;30.41;28.88;33.60;;
67298;Laerm;65443;51.436;5.978;2023-02-28T00:19:19;30.36;28.70;33.18;;
67298;Laerm;65443;51.436;5.978;2023-02-28T00:19:29;30.30;28.82;33.99;;
67298;Laerm;65443;51.436;5.978;2023-02-28T00:19:39;29.98;28.52;31.61;;
67298;Laerm;65443;51.436;5.978;2023-02-28T00:19:50;30.01;28.60;32.66;;
67298;Laerm;65443;51.436;5.978;2023-02-28T00:20:00;30.01;28.18;31.86;;
67298;Laerm;65443;51.436;5.978;2023-02-28T00:20:21;30.05;28.54;31.48;;
67298;Laerm;65443;51.436;5.978;2023-02-28T00:20:32;29.90;28.46;31.16;;
67298;Laerm;65443;51.436;5.978;2023-02-28T00:20:42;29.97;27.90;31.75;;
67298;Laerm;65443;51.436;5.978;2023-02-28T00:20:52;29.77;28.47;30.99;;
67298;Laerm;65443;51.436;5.978;2023-02-28T00:21:03;29.77;28.28;31.02;;
67298;Laerm;65443;51.436;5.978;2023-02-28T00:21:13;29.76;28.37;31.14;;
67298;Laerm;65443;51.436;5.978;2023-02-28T00:21:24;29.79;28.19;31.24;;
67298;Laerm;65443;51.436;5.978;2023-02-28T00:21:34;30.01;28.73;31.29;;
67298;Laerm;65443;51.436;5.978;2023-02-28T00:21:45;29.94;28.22;31.94;;
67298;Laerm;65443;51.436;5.978;2023-02-28T00:21:55;30.14;28.40;31.89;;
67298;Laerm;65443;51.436;5.978;2023-02-28T00:22:06;29.82;28.63;31.21;;
67298;Laerm;65443;51.436;5.978;2023-02-28T00:22:17;29.87;28.42;31.74;;
67298;Laerm;65443;51.436;5.978;2023-02-28T00:22:27;29.70;28.15;30.82;;
67298;Laerm;65443;51.436;5.978;2023-02-28T00:22:41;29.59;27.95;30.75;;
67298;Laerm;65443;51.436;5.978;2023-02-28T00:22:52;29.85;28.21;32.54;;
67298;Laerm;65443;51.436;5.978;2023-02-28T00:23:03;30.10;28.00;31.88;;
67298;Laerm;65443;51.436;5.978;2023-02-28T00:23:13;30.11;28.39;31.51;;
67298;Laerm;65443;51.436;5.978;2023-02-28T00:23:23;29.82;28.41;31.37;;
67298;Laerm;65443;51.436;5.978;2023-02-28T00:23:34;29.64;28.37;30.87;;
67298;Laerm;65443;51.436;5.978;2023-02-28T00:23:44;29.72;28.48;32.12;;
67298;Laerm;65443;51.436;5.978;2023-02-28T00:23:55;29.86;28.43;38.08;;
67298;Laerm;65443;51.436;5.978;2023-02-28T00:24:05;29.74;28.66;32.26;;
67298;Laerm;65443;51.436;5.978;2023-02-28T00:24:15;29.59;28.42;30.89;;
67298;Laerm;65443;51.436;5.978;2023-02-28T00:24:25;29.53;28.20;31.02;;
67298;Laerm;65443;51.436;5.978;2023-02-28T00:24:36;29.53;28.25;30.89;;
67298;Laerm;65443;51.436;5.978;2023-02-28T00:24:46;29.75;28.56;31.20;;
67298;Laerm;65443;51.436;5.978;2023-02-28T00:24:57;29.86;28.53;31.26;;
67298;Laerm;65443;51.436;5.978;2023-02-28T00:25:12;30.10;28.74;31.54;;
67298;Laerm;65443;51.436;5.978;2023-02-28T00:25:24;30.24;28.91;32.09;;
67298;Laerm;65443;51.436;5.978;2023-02-28T00:25:34;29.99;28.75;31.84;;
67298;Laerm;65443;51.436;5.978;2023-02-28T00:25:45;29.66;28.34;31.10;;
67298;Laerm;65443;51.436;5.978;2023-02-28T00:25:55;29.80;28.59;31.01;;
67298;Laerm;65443;51.436;5.978;2023-02-28T00:26:05;29.85;28.37;31.53;;
67298;Laerm;65443;51.436;5.978;2023-02-28T00:26:15;29.84;28.59;31.06;;
67298;Laerm;65443;51.436;5.978;2023-02-28T00:26:26;29.75;28.30;31.10;;
67298;Laerm;65443;51.436;5.978;2023-02-28T00:26:36;29.76;28.53;31.03;;
67298;Laerm;65443;51.436;5.978;2023-02-28T00:26:46;29.81;28.30;31.43;;
67298;Laerm;65443;51.436;5.978;2023-02-28T00:26:57;29.95;28.75;31.28;;
67298;Laerm;65443;51.436;5.978;2023-02-28T00:27:07;30.07;28.79;31.49;;
67298;Laerm;65443;51.436;5.978;2023-02-28T00:27:17;30.08;28.90;31.50;;
67298;Laerm;65443;51.436;5.978;2023-02-28T00:27:28;29.94;28.44;31.04;;
67298;Laerm;65443;51.436;5.978;2023-02-28T00:27:39;30.10;28.83;31.28;;
67298;Laerm;65443;51.436;5.978;2023-02-28T00:27:49;30.04;28.55;32.12;;
67298;Laerm;65443;51.436;5.978;2023-02-28T00:27:59;30.08;28.53;31.60;;
67298;Laerm;65443;51.436;5.978;2023-02-28T00:28:10;30.07;28.75;32.72;;
67298;Laerm;65443;51.436;5.978;2023-02-28T00:28:20;30.05;28.74;31.30;;
67298;Laerm;65443;51.436;5.978;2023-02-28T00:28:31;29.90;28.63;31.20;;
67298;Laerm;65443;51.436;5.978;2023-02-28T00:28:41;29.85;28.61;31.26;;
67298;Laerm;65443;51.436;5.978;2023-02-28T00:28:52;29.87;28.77;31.35;;
67298;Laerm;65443;51.436;5.978;2023-02-28T00:29:02;32.11;28.46;48.68;;
67298;Laerm;65443;51.436;5.978;2023-02-28T00:29:13;30.07;28.64;37.18;;
67298;Laerm;65443;51.436;5.978;2023-02-28T00:29:23;30.99;28.42;45.49;;
67298;Laerm;65443;51.436;5.978;2023-02-28T00:29:33;30.36;29.23;31.82;;
67298;Laerm;65443;51.436;5.978;2023-02-28T00:29:45;30.55;29.41;31.99;;
67298;Laerm;65443;51.436;5.978;2023-02-28T00:29:56;30.30;28.65;32.19;;
67298;Laerm;65443;51.436;5.978;2023-02-28T00:30:07;30.00;28.42;31.37;;
67298;Laerm;65443;51.436;5.978;2023-02-28T00:30:19;30.19;28.54;34.21;;
67298;Laerm;65443;51.436;5.978;2023-02-28T00:30:30;29.97;28.52;31.92;;
67298;Laerm;65443;51.436;5.978;2023-02-28T00:30:40;30.17;28.86;32.06;;
67298;Laerm;65443;51.436;5.978;2023-02-28T00:30:51;30.03;28.69;31.35;;
67298;Laerm;65443;51.436;5.978;2023-02-28T00:31:01;30.11;28.94;31.92;;
67298;Laerm;65443;51.436;5.978;2023-02-28T00:31:11;61.13;29.22;76.30;;
67298;Laerm;65443;51.436;5.978;2023-02-28T00:31:22;30.51;28.86;31.94;;
67298;Laerm;65443;51.436;5.978;2023-02-28T00:31:32;30.45;29.06;32.57;;
67298;Laerm;65443;51.436;5.978;2023-02-28T00:31:42;29.99;28.55;31.42;;
67298;Laerm;65443;51.436;5.978;2023-02-28T00:31:53;30.35;28.69;32.18;;
67298;Laerm;65443;51.436;5.978;2023-02-28T00:32:03;32.13;29.74;34.88;;
67298;Laerm;65443;51.436;5.978;2023-02-28T00:32:14;31.37;29.29;36.25;;
67298;Laerm;65443;51.436;5.978;2023-02-28T00:32:24;33.52;29.11;42.93;;
67298;Laerm;65443;51.436;5.978;2023-02-28T00:32:34;31.02;29.53;35.43;;
67298;Laerm;65443;51.436;5.978;2023-02-28T00:32:44;32.27;30.01;37.40;;
67298;Laerm;65443;51.436;5.978;2023-02-28T00:32:55;31.55;29.50;38.28;;
67298;Laerm;65443;51.436;5.978;2023-02-28T00:33:05;33.11;29.12;37.49;;
67298;Laerm;65443;51.436;5.978;2023-02-28T00:33:16;36.05;29.19;53.29;;
67298;Laerm;65443;51.436;5.978;2023-02-28T00:33:27;31.08;29.04;32.97;;
67298;Laerm;65443;51.436;5.978;2023-02-28T00:33:37;36.70;31.25;45.69;;
67298;Laerm;65443;51.436;5.978;2023-02-28T00:33:47;50.73;41.61;55.56;;
67298;Laerm;65443;51.436;5.978;2023-02-28T00:33:58;45.83;39.15;51.32;;
67298;Laerm;65443;51.436;5.978;2023-02-28T00:34:08;37.06;30.85;42.73;;
67298;Laerm;65443;51.436;5.978;2023-02-28T00:34:18;31.21;29.27;32.91;;
67298;Laerm;65443;51.436;5.978;2023-02-28T00:34:29;31.09;29.30;34.25;;
67298;Laerm;65443;51.436;5.978;2023-02-28T00:34:39;30.82;29.43;32.57;;
67298;Laerm;65443;51.436;5.978;2023-02-28T00:34:49;31.61;29.49;34.14;;
67298;Laerm;65443;51.436;5.978;2023-02-28T00:35:00;30.42;29.03;32.27;;
67298;Laerm;65443;51.436;5.978;2023-02-28T00:35:10;31.03;29.50;32.70;;
67298;Laerm;65443;51.436;5.978;2023-02-28T00:35:20;30.41;28.66;32.36;;
67298;Laerm;65443;51.436;5.978;2023-02-28T00:35:31;30.21;28.80;32.96;;
67298;Laerm;65443;51.436;5.978;2023-02-28T00:35:41;30.07;28.79;31.59;;
67298;Laerm;65443;51.436;5.978;2023-02-28T00:35:51;30.10;29.07;31.39;;
67298;Laerm;65443;51.436;5.978;2023-02-28T00:36:05;30.06;28.53;31.94;;
67298;Laerm;65443;51.436;5.978;2023-02-28T00:36:16;30.06;28.82;31.62;;
67298;Laerm;65443;51.436;5.978;2023-02-28T00:36:26;30.16;28.48;31.63;;
67298;Laerm;65443;51.436;5.978;2023-02-28T00:36:37;30.19;28.90;31.57;;
67298;Laerm;65443;51.436;5.978;2023-02-28T00:36:48;30.48;29.10;31.78;;
67298;Laerm;65443;51.436;5.978;2023-02-28T00:37:00;30.48;28.95;35.26;;
67298;Laerm;65443;51.436;5.978;2023-02-28T00:37:11;30.06;28.59;31.45;;
67298;Laerm;65443;51.436;5.978;2023-02-28T00:37:24;30.08;28.69;31.40;;
67298;Laerm;65443;51.436;5.978;2023-02-28T00:37:34;30.52;28.78;32.54;;
67298;Laerm;65443;51.436;5.978;2023-02-28T00:37:45;31.33;29.53;33.16;;
67298;Laerm;65443;51.436;5.978;2023-02-28T00:37:55;30.82;28.99;32.94;;
67298;Laerm;65443;51.436;5.978;2023-02-28T00:38:06;29.94;28.24;31.74;;
67298;Laerm;65443;51.436;5.978;2023-02-28T00:38:16;30.01;28.11;31.45;;
67298;Laerm;65443;51.436;5.978;2023-02-28T00:38:26;30.23;28.83;31.78;;
67298;Laerm;65443;51.436;5.978;2023-02-28T00:38:37;30.03;28.25;31.37;;
67298;Laerm;65443;51.436;5.978;2023-02-28T00:38:48;30.00;28.59;31.52;;
67298;Laerm;65443;51.436;5.978;2023-02-28T00:38:58;30.02;28.61;31.29;;
67298;Laerm;65443;51.436;5.978;2023-02-28T00:39:08;30.03;28.40;31.10;;
67298;Laerm;65443;51.436;5.978;2023-02-28T00:39:19;29.99;28.72;31.58;;
67298;Laerm;65443;51.436;5.978;2023-02-28T00:39:29;30.51;28.65;32.12;;
67298;Laerm;65443;51.436;5.978;2023-02-28T00:39:39;31.17;29.06;32.97;;
67298;Laerm;65443;51.436;5.978;2023-02-28T00:39:50;31.62;29.42;33.30;;
67298;Laerm;65443;51.436;5.978;2023-02-28T00:40:00;30.37;28.83;33.05;;
67298;Laerm;65443;51.436;5.978;2023-02-28T00:40:11;30.13;28.19;31.61;;
67298;Laerm;65443;51.436;5.978;2023-02-28T00:40:22;30.35;28.84;31.66;;
67298;Laerm;65443;51.436;5.978;2023-02-28T00:40:32;30.51;29.14;31.96;;
67298;Laerm;65443;51.436;5.978;2023-02-28T00:40:42;30.56;28.98;32.12;;
67298;Laerm;65443;51.436;5.978;2023-02-28T00:40:53;30.53;29.14;32.23;;
67298;Laerm;65443;51.436;5.978;2023-02-28T00:41:03;30.16;28.74;31.84;;
67298;Laerm;65443;51.436;5.978;2023-02-28T00:41:14;30.04;28.68;32.05;;
67298;Laerm;65443;51.436;5.978;2023-02-28T00:41:25;29.99;28.79;31.42;;
67298;Laerm;65443;51.436;5.978;2023-02-28T00:41:35;29.80;28.57;31.15;;
67298;Laerm;65443;51.436;5.978;2023-02-28T00:41:45;29.87;28.38;31.34;;
67298;Laerm;65443;51.436;5.978;2023-02-28T00:41:55;29.88;28.81;31.44;;
67298;Laerm;65443;51.436;5.978;2023-02-28T00:42:06;29.85;28.29;31.26;;
67298;Laerm;65443;51.436;5.978;2023-02-28T00:42:17;29.73;28.47;31.03;;
67298;Laerm;65443;51.436;5.978;2023-02-28T00:42:27;29.76;28.52;31.14;;
67298;Laerm;65443;51.436;5.978;2023-02-28T00:42:37;29.81;28.66;31.26;;
67298;Laerm;65443;51.436;5.978;2023-02-28T00:42:48;29.89;28.33;31.09;;
67298;Laerm;65443;51.436;5.978;2023-02-28T00:42:58;30.00;28.57;31.21;;
67298;Laerm;65443;51.436;5.978;2023-02-28T00:43:08;30.02;28.39;31.47;;
67298;Laerm;65443;51.436;5.978;2023-02-28T00:43:19;30.04;28.50;31.79;;
67298;Laerm;65443;51.436;5.978;2023-02-28T00:43:29;30.06;28.35;31.56;;
67298;Laerm;65443;51.436;5.978;2023-02-28T00:43:39;29.93;28.47;31.04;;
67298;Laerm;65443;51.436;5.978;2023-02-28T00:43:50;29.78;28.34;31.20;;
67298;Laerm;65443;51.436;5.978;2023-02-28T00:44:00;29.79;28.48;31.06;;
67298;Laerm;65443;51.436;5.978;2023-02-28T00:44:10;29.88;28.22;31.32;;
67298;Laerm;65443;51.436;5.978;2023-02-28T00:44:21;29.96;28.41;31.32;;
67298;Laerm;65443;51.436;5.978;2023-02-28T00:44:31;29.96;28.64;32.28;;
67298;Laerm;65443;51.436;5.978;2023-02-28T00:44:41;30.07;28.74;31.48;;
67298;Laerm;65443;51.436;5.978;2023-02-28T00:44:52;30.22;28.68;32.09;;
67298;Laerm;65443;51.436;5.978;2023-02-28T00:45:03;30.62;28.73;34.10;;
67298;Laerm;65443;51.436;5.978;2023-02-28T00:45:14;30.48;28.50;33.13;;
67298;Laerm;65443;51.436;5.978;2023-02-28T00:45:25;30.38;28.98;31.86;;
67298;Laerm;65443;51.436;5.978;2023-02-28T00:45:35;30.40;28.63;31.98;;
67298;Laerm;65443;51.436;5.978;2023-02-28T00:45:45;30.97;29.26;32.89;;
67298;Laerm;65443;51.436;5.978;2023-02-28T00:45:55;32.80;29.53;38.45;;
67298;Laerm;65443;51.436;5.978;2023-02-28T00:46:06;32.05;29.94;37.88;;
67298;Laerm;65443;51.436;5.978;2023-02-28T00:46:17;32.04;29.66;36.01;;
67298;Laerm;65443;51.436;5.978;2023-02-28T00:46:27;31.99;30.21;34.47;;
67298;Laerm;65443;51.436;5.978;2023-02-28T00:46:37;32.09;30.04;35.59;;
67298;Laerm;65443;51.436;5.978;2023-02-28T00:46:48;30.63;29.36;32.35;;
67298;Laerm;65443;51.436;5.978;2023-02-28T00:46:58;30.23;28.59;31.53;;
67298;Laerm;65443;51.436;5.978;2023-02-28T00:47:08;30.06;28.63;31.42;;
67298;Laerm;65443;51.436;5.978;2023-02-28T00:47:19;30.35;28.99;31.77;;
67298;Laerm;65443;51.436;5.978;2023-02-28T00:47:29;30.53;28.97;31.70;;
67298;Laerm;65443;51.436;5.978;2023-02-28T00:47:39;30.60;29.20;32.28;;
67298;Laerm;65443;51.436;5.978;2023-02-28T00:47:50;30.56;28.92;31.88;;
67298;Laerm;65443;51.436;5.978;2023-02-28T00:48:00;30.39;28.68;31.94;;
67298;Laerm;65443;51.436;5.978;2023-02-28T00:48:10;30.27;28.68;31.75;;
67298;Laerm;65443;51.436;5.978;2023-02-28T00:48:20;30.92;29.17;32.83;;
67298;Laerm;65443;51.436;5.978;2023-02-28T00:48:31;31.37;29.67;32.60;;
67298;Laerm;65443;51.436;5.978;2023-02-28T00:48:41;31.53;29.83;33.12;;
67298;Laerm;65443;51.436;5.978;2023-02-28T00:48:52;30.45;28.92;32.66;;
67298;Laerm;65443;51.436;5.978;2023-02-28T00:49:02;29.98;28.61;33.19;;
67298;Laerm;65443;51.436;5.978;2023-02-28T00:49:12;60.04;29.08;67.42;;
67298;Laerm;65443;51.436;5.978;2023-02-28T00:49:23;59.19;48.89;67.72;;
67298;Laerm;65443;51.436;5.978;2023-02-28T00:49:34;53.17;50.15;55.85;;
67298;Laerm;65443;51.436;5.978;2023-02-28T00:49:44;54.83;49.86;57.46;;
67298;Laerm;65443;51.436;5.978;2023-02-28T00:49:54;54.21;49.24;56.75;;
67298;Laerm;65443;51.436;5.978;2023-02-28T00:50:05;53.65;48.67;59.86;;
67298;Laerm;65443;51.436;5.978;2023-02-28T00:50:17;72.18;58.20;77.19;;
67298;Laerm;65443;51.436;5.978;2023-02-28T00:50:28;62.48;41.76;75.58;;
67298;Laerm;65443;51.436;5.978;2023-02-28T00:50:38;43.85;41.11;46.02;;
67298;Laerm;65443;51.436;5.978;2023-02-28T00:50:49;40.20;35.41;47.76;;
67298;Laerm;65443;51.436;5.978;2023-02-28T00:51:00;39.49;35.98;43.99;;
67298;Laerm;65443;51.436;5.978;2023-02-28T00:51:10;36.33;33.69;43.34;;
67298;Laerm;65443;51.436;5.978;2023-02-28T00:51:21;36.78;33.53;40.29;;
67298;Laerm;65443;51.436;5.978;2023-02-28T00:51:31;34.57;31.46;37.81;;
67298;Laerm;65443;51.436;5.978;2023-02-28T00:51:42;33.82;30.70;41.72;;
67298;Laerm;65443;51.436;5.978;2023-02-28T00:51:53;34.02;31.36;37.44;;
67298;Laerm;65443;51.436;5.978;2023-02-28T00:52:04;32.17;29.55;35.74;;
67298;Laerm;65443;51.436;5.978;2023-02-28T00:52:14;31.18;29.62;33.75;;
67298;Laerm;65443;51.436;5.978;2023-02-28T00:52:25;31.00;28.87;33.54;;
67298;Laerm;65443;51.436;5.978;2023-02-28T00:52:36;31.02;29.62;33.28;;
67298;Laerm;65443;51.436;5.978;2023-02-28T00:52:47;31.05;29.61;33.27;;
67298;Laerm;65443;51.436;5.978;2023-02-28T00:52:57;31.28;29.15;35.55;;
67298;Laerm;65443;51.436;5.978;2023-02-28T00:53:08;30.90;29.11;34.70;;
67298;Laerm;65443;51.436;5.978;2023-02-28T00:53:18;31.22;29.26;34.06;;
67298;Laerm;65443;51.436;5.978;2023-02-28T00:53:29;30.67;28.98;32.25;;
67298;Laerm;65443;51.436;5.978;2023-02-28T00:53:40;30.42;28.83;31.83;;
67298;Laerm;65443;51.436;5.978;2023-02-28T00:53:50;30.49;28.83;32.00;;
67298;Laerm;65443;51.436;5.978;2023-02-28T00:54:00;30.22;28.71;31.79;;
67298;Laerm;65443;51.436;5.978;2023-02-28T00:54:11;30.34;29.15;31.95;;
67298;Laerm;65443;51.436;5.978;2023-02-28T00:54:22;30.56;29.10;32.21;;
67298;Laerm;65443;51.436;5.978;2023-02-28T00:54:32;32.59;29.51;45.06;;
67298;Laerm;65443;51.436;5.978;2023-02-28T00:54:43;54.63;29.85;65.06;;
67298;Laerm;65443;51.436;5.978;2023-02-28T00:54:53;61.45;54.03;66.16;;
67298;Laerm;65443;51.436;5.978;2023-02-28T00:55:04;53.91;50.01;65.95;;
67298;Laerm;65443;51.436;5.978;2023-02-28T00:55:14;52.75;49.96;55.94;;
67298;Laerm;65443;51.436;5.978;2023-02-28T00:55:24;54.78;51.14;57.27;;
67298;Laerm;65443;51.436;5.978;2023-02-28T00:55:35;55.41;52.18;58.28;;
67298;Laerm;65443;51.436;5.978;2023-02-28T00:55:45;54.02;48.69;57.20;;
67298;Laerm;65443;51.436;5.978;2023-02-28T00:55:55;52.94;50.53;56.12;;
67298;Laerm;65443;51.436;5.978;2023-02-28T00:56:06;51.94;48.87;55.26;;
67298;Laerm;65443;51.436;5.978;2023-02-28T00:56:16;52.54;50.13;55.19;;
67298;Laerm;65443;51.436;5.978;2023-02-28T00:56:26;52.47;50.08;55.00;;
67298;Laerm;65443;51.436;5.978;2023-02-28T00:56:37;57.08;49.98;62.18;;
67298;Laerm;65443;51.436;5.978;2023-02-28T00:56:47;67.32;57.49;73.23;;
67298;Laerm;65443;51.436;5.978;2023-02-28T00:56:58;55.57;51.84;59.69;;
67298;Laerm;65443;51.436;5.978;2023-02-28T00:57:08;53.76;50.67;56.87;;
67298;Laerm;65443;51.436;5.978;2023-02-28T00:57:18;54.00;50.25;56.77;;
67298;Laerm;65443;51.436;5.978;2023-02-28T00:57:29;55.67;50.07;61.94;;
67298;Laerm;65443;51.436;5.978;2023-02-28T00:57:39;76.92;60.95;81.46;;
67298;Laerm;65443;51.436;5.978;2023-02-28T00:57:49;74.64;55.07;80.34;;
67298;Laerm;65443;51.436;5.978;2023-02-28T00:58:00;52.66;44.48;59.11;;
67298;Laerm;65443;51.436;5.978;2023-02-28T00:58:10;44.63;41.76;48.23;;
67298;Laerm;65443;51.436;5.978;2023-02-28T00:58:20;43.38;38.44;46.95;;
67298;Laerm;65443;51.436;5.978;2023-02-28T00:58:31;38.28;34.67;42.27;;
67298;Laerm;65443;51.436;5.978;2023-02-28T00:58:41;37.76;34.77;44.13;;
67298;Laerm;65443;51.436;5.978;2023-02-28T00:58:51;38.12;33.82;43.03;;
67298;Laerm;65443;51.436;5.978;2023-02-28T00:59:02;36.41;32.49;40.55;;
67298;Laerm;65443;51.436;5.978;2023-02-28T00:59:12;36.18;32.77;40.12;;
67298;Laerm;65443;51.436;5.978;2023-02-28T00:59:23;33.83;30.75;36.82;;